Time;durP1;ratioP1;P1;durP2;ratioP2;P2;SDS_P1;SDS_P2;PMS_P1;PMS_P2;Temp;Humidity;BMP_temperature;BMP_pressure;BME280_temperature;BME280_humidity;BME280_pressure;Samples;Min_cycle;Max_cycle;Signal;HPM_P1;HPM_P2
2024/04/18 00:00:34;;;;;;;3.83;1.75;;;13.60;55.00;;;;;;5453058;26;20007;-70
2024/04/18 00:02:59;;;;;;;5.03;2.10;;;13.60;55.00;;;;;;5453739;26;20007;-72
2024/04/18 00:05:25;;;;;;;4.63;1.67;;;13.60;54.60;;;;;;5452780;26;19995;-71
2024/04/18 00:07:51;;;;;;;5.30;2.00;;;13.60;54.80;;;;;;5453481;26;20446;-72
2024/04/18 00:10:16;;;;;;;3.88;1.67;;;13.60;54.80;;;;;;5452856;26;19995;-72
2024/04/18 00:12:42;;;;;;;3.60;1.88;;;13.50;54.80;;;;;;5421516;26;19994;-72
2024/04/18 00:15:08;;;;;;;4.25;1.88;;;13.50;55.10;;;;;;5453498;26;19995;-72
2024/04/18 00:17:37;;;;;;;5.20;1.90;;;13.50;55.40;;;;;;5452831;26;19999;-71
2024/04/18 00:20:04;;;;;;;3.47;1.65;;;13.50;55.30;;;;;;5452945;26;20438;-72
2024/04/18 00:22:30;;;;;;;4.00;1.70;;;13.50;55.30;;;;;;5452522;26;20027;-71
2024/04/18 00:24:56;;;;;;;5.32;2.10;;;13.50;55.40;;;;;;5452258;26;19995;-71
2024/04/18 00:27:21;;;;;;;5.25;1.90;;;13.60;55.40;;;;;;5452017;26;20401;-72
2024/04/18 00:29:47;;;;;;;5.72;1.90;;;13.50;55.50;;;;;;5451658;26;20002;-72
2024/04/18 00:32:15;;;;;;;5.00;2.00;;;13.40;55.70;;;;;;5452443;26;19996;-72
2024/04/18 00:34:41;;;;;;;5.82;2.45;;;13.50;55.60;;;;;;5452328;26;20454;-72
2024/04/18 00:37:07;;;;;;;3.25;1.58;;;13.50;55.60;;;;;;5420385;26;19998;-71
2024/04/18 00:39:33;;;;;;;6.70;1.95;;;13.40;55.70;;;;;;5452335;26;19998;-73
2024/04/18 00:42:01;;;;;;;4.82;1.75;;;13.40;55.50;;;;;;5452893;26;20010;-73
2024/04/18 00:44:28;;;;;;;4.45;1.98;;;13.40;56.50;;;;;;5452331;26;20006;-71
2024/04/18 00:46:54;;;;;;;4.90;2.17;;;13.40;55.90;;;;;;5451888;26;20470;-71
2024/04/18 00:49:21;;;;;;;6.05;2.55;;;13.30;56.10;;;;;;5452280;26;20005;-72
2024/04/18 00:51:48;;;;;;;7.05;2.20;;;13.30;56.20;;;;;;5451564;26;20006;-72
2024/04/18 00:54:14;;;;;;;6.43;2.05;;;13.20;55.70;;;;;;5452609;26;19999;-72
2024/04/18 00:56:41;;;;;;;6.00;2.15;;;13.20;56.10;;;;;;5452348;26;19995;-71
2024/04/18 00:59:07;;;;;;;6.07;2.13;;;13.10;55.80;;;;;;5452611;26;20435;-72
2024/04/18 01:01:33;;;;;;;6.53;2.13;;;13.00;56.40;;;;;;5452381;26;20006;-72
2024/04/18 01:03:59;;;;;;;9.73;2.08;;;13.00;55.60;;;;;;5452565;26;19995;-72
2024/04/18 01:06:24;;;;;;;4.30;1.75;;;13.00;56.00;;;;;;5453384;26;20499;-73
2024/04/18 01:08:54;;;;;;;3.45;1.70;;;13.00;56.00;;;;;;5452441;26;20003;-72
2024/04/18 01:11:19;;;;;;;5.68;1.75;;;13.00;56.40;;;;;;5452425;26;20014;-72
2024/04/18 01:13:45;;;;;;;4.93;1.50;;;12.90;56.10;;;;;;5451982;26;20439;-72
2024/04/18 01:16:11;;;;;;;2.85;1.55;;;12.80;56.20;;;;;;5443565;26;20003;-71
2024/04/18 01:18:36;;;;;;;6.78;1.70;;;12.90;56.40;;;;;;5432662;26;19999;-71
2024/04/18 01:21:02;;;;;;;3.38;1.60;;;12.80;56.60;;;;;;5451263;26;20005;-71
2024/04/18 01:23:28;;;;;;;3.70;1.50;;;12.80;56.70;;;;;;5452049;26;19999;-72
2024/04/18 01:25:55;;;;;;;4.10;1.55;;;12.80;56.70;;;;;;5446570;26;20423;-73
2024/04/18 01:28:21;;;;;;;2.92;1.42;;;12.70;56.80;;;;;;5417441;26;19995;-72
2024/04/18 01:30:46;;;;;;;4.10;1.67;;;12.70;56.50;;;;;;5416506;26;19995;-73
2024/04/18 01:33:12;;;;;;;3.28;1.77;;;12.70;56.80;;;;;;5415901;26;19991;-70
2024/04/18 01:35:38;;;;;;;4.47;1.70;;;12.70;56.90;;;;;;5416179;26;20041;-71
2024/04/18 01:38:04;;;;;;;4.40;1.92;;;12.70;57.00;;;;;;5416121;26;20003;-73
2024/04/18 01:40:29;;;;;;;5.32;2.10;;;12.70;57.00;;;;;;5414825;26;19996;-73
2024/04/18 01:42:55;;;;;;;4.78;1.90;;;12.70;57.00;;;;;;5415746;26;20183;-72
2024/04/18 01:45:21;;;;;;;5.43;2.03;;;12.70;57.30;;;;;;5415328;26;19987;-71
2024/04/18 01:47:47;;;;;;;5.53;2.00;;;12.70;57.10;;;;;;5415656;26;20398;-71
2024/04/18 01:50:12;;;;;;;3.67;1.85;;;12.70;57.10;;;;;;5413896;26;20332;-72
2024/04/18 01:52:38;;;;;;;3.88;2.10;;;12.70;57.20;;;;;;5415848;26;20003;-71
2024/04/18 01:55:08;;;;;;;7.03;2.15;;;12.70;57.30;;;;;;5416023;26;19992;-72
2024/04/18 01:57:34;;;;;;;4.28;1.73;;;12.70;57.50;;;;;;5415426;26;19999;-72
2024/04/18 02:00:00;;;;;;;5.90;1.95;;;12.70;57.70;;;;;;5415401;26;20027;-72
2024/04/18 02:02:25;;;;;;;5.85;2.38;;;12.60;57.70;;;;;;5416084;26;20069;-72
2024/04/18 02:04:51;;;;;;;5.45;2.40;;;12.60;57.80;;;;;;5415059;26;20000;-73
2024/04/18 02:07:17;;;;;;;4.65;2.38;;;12.50;57.90;;;;;;5415156;26;19995;-72
2024/04/18 02:09:43;;;;;;;5.95;2.20;;;12.40;57.90;;;;;;5415060;26;20002;-71
2024/04/18 02:12:08;;;;;;;7.55;2.33;;;12.40;58.40;;;;;;5415860;26;19999;-72
2024/04/18 02:14:34;;;;;;;5.40;2.15;;;12.50;58.50;;;;;;5415141;26;20040;-72
2024/04/18 02:17:00;;;;;;;7.40;2.70;;;12.50;58.50;;;;;;5414982;26;20000;-73
2024/04/18 02:19:26;;;;;;;5.38;2.15;;;12.50;58.60;;;;;;5414735;26;20111;-72
2024/04/18 02:21:52;;;;;;;5.32;2.33;;;12.40;58.40;;;;;;5415266;26;20064;-72
2024/04/18 02:24:17;;;;;;;4.90;2.30;;;12.30;58.30;;;;;;5415519;26;20172;-72
2024/04/18 02:26:43;;;;;;;4.10;2.17;;;12.30;58.50;;;;;;5415206;26;19995;-70
2024/04/18 02:29:10;;;;;;;5.18;2.20;;;12.30;58.70;;;;;;5415532;26;20415;-71
2024/04/18 02:31:36;;;;;;;5.40;2.25;;;12.20;58.40;;;;;;5414919;26;20482;-72
2024/04/18 02:34:02;;;;;;;5.22;1.75;;;12.20;58.70;;;;;;5414787;26;19995;-72
2024/04/18 02:36:27;;;;;;;4.47;1.80;;;12.10;58.70;;;;;;5415061;26;20004;-72
2024/04/18 02:38:53;;;;;;;4.90;1.63;;;12.00;58.70;;;;;;5414781;26;19999;-72
2024/04/18 02:41:19;;;;;;;3.90;2.03;;;11.90;58.90;;;;;;5414646;26;20031;-71
2024/04/18 02:43:45;;;;;;;3.75;1.80;;;12.00;58.80;;;;;;5414659;26;20073;-71
2024/04/18 02:46:10;;;;;;;3.85;1.80;;;11.90;58.90;;;;;;5383427;26;20007;-72
2024/04/18 02:48:37;;;;;;;3.95;1.85;;;12.00;59.10;;;;;;5414454;26;20000;-72
2024/04/18 02:51:07;;;;;;;5.15;2.05;;;12.00;59.00;;;;;;5414809;26;20355;-72
2024/04/18 02:53:33;;;;;;;6.63;1.80;;;12.00;59.00;;;;;;5412813;26;20016;-72
2024/04/18 02:55:58;;;;;;;3.13;1.70;;;11.90;58.90;;;;;;5422150;26;19995;-72
2024/04/18 02:58:24;;;;;;;4.10;1.88;;;11.90;59.00;;;;;;5418082;26;20028;-72
2024/04/18 03:00:50;;;;;;;5.03;2.10;;;11.80;59.10;;;;;;5417979;26;20041;-71
2024/04/18 03:03:15;;;;;;;5.88;1.95;;;11.70;59.20;;;;;;5417566;26;20000;-71
2024/04/18 03:05:41;;;;;;;6.38;1.98;;;11.70;59.70;;;;;;5417886;26;20036;-72
2024/04/18 03:08:07;;;;;;;6.10;2.10;;;11.70;59.60;;;;;;5417076;26;20006;-72
2024/04/18 03:10:32;;;;;;;4.30;2.00;;;11.60;59.70;;;;;;5417519;26;20000;-71
2024/04/18 03:12:58;;;;;;;5.28;2.00;;;11.60;59.70;;;;;;5417421;26;20024;-72
2024/04/18 03:15:24;;;;;;;5.55;2.47;;;11.60;59.80;;;;;;5415939;26;20107;-71
2024/04/18 03:17:53;;;;;;;5.18;2.30;;;11.50;59.70;;;;;;5417302;26;20455;-72
2024/04/18 03:20:22;;;;;;;4.07;1.80;;;11.50;59.50;;;;;;5417588;26;19992;-73
2024/04/18 03:22:48;;;;;;;5.85;1.77;;;11.40;60.00;;;;;;5417740;26;20011;-72
2024/04/18 03:25:15;;;;;;;8.32;1.85;;;11.40;59.90;;;;;;5417785;26;20439;-72
2024/04/18 03:27:41;;;;;;;6.03;1.85;;;11.40;59.90;;;;;;5417200;26;20003;-72
2024/04/18 03:30:07;;;;;;;3.80;1.60;;;11.40;59.90;;;;;;5416957;26;20007;-71
2024/04/18 03:32:36;;;;;;;4.40;1.85;;;11.50;59.80;;;;;;5417373;26;20351;-72
2024/04/18 03:35:03;;;;;;;3.38;1.60;;;11.50;59.70;;;;;;5417465;26;20000;-72
2024/04/18 03:37:29;;;;;;;4.35;1.58;;;11.40;59.30;;;;;;5417042;26;19999;-71
2024/04/18 03:39:57;;;;;;;3.00;1.30;;;11.50;59.70;;;;;;5415468;26;20468;-72
2024/04/18 03:42:23;;;;;;;4.07;1.70;;;11.50;59.70;;;;;;5415894;26;20051;-73
2024/04/18 03:44:49;;;;;;;2.33;1.23;;;11.50;59.70;;;;;;5417138;26;20440;-73
2024/04/18 03:47:14;;;;;;;5.10;1.85;;;11.50;59.80;;;;;;5417551;26;20374;-71
2024/04/18 03:49:40;;;;;;;4.57;1.50;;;11.50;59.70;;;;;;5417192;26;20010;-72
2024/04/18 03:52:06;;;;;;;3.40;1.77;;;11.40;59.40;;;;;;5417146;26;19996;-71
2024/04/18 03:54:33;;;;;;;4.45;1.60;;;11.40;59.50;;;;;;5417278;26;20440;-72
2024/04/18 03:56:58;;;;;;;4.07;1.60;;;11.40;59.70;;;;;;5417649;26;19995;-72
2024/04/18 03:59:24;;;;;;;3.83;1.13;;;11.40;59.60;;;;;;5415315;26;20006;-72
2024/04/18 04:01:50;;;;;;;4.10;1.45;;;11.40;59.70;;;;;;5415064;26;20010;-72
2024/04/18 04:04:15;;;;;;;2.70;1.40;;;11.40;59.80;;;;;;5415755;26;20372;-72
2024/04/18 04:06:41;;;;;;;5.65;1.70;;;11.40;59.70;;;;;;5416911;26;20008;-71
2024/04/18 04:09:06;;;;;;;4.25;1.77;;;11.40;59.50;;;;;;5416710;26;20331;-72
2024/04/18 04:11:32;;;;;;;5.05;1.60;;;11.40;59.90;;;;;;5444651;26;20554;-71
2024/04/18 04:13:58;;;;;;;4.03;1.48;;;11.40;59.70;;;;;;5452416;26;20029;-72
2024/04/18 04:16:24;;;;;;;3.53;1.90;;;11.40;59.70;;;;;;5452815;26;19999;-72
2024/04/18 04:18:54;;;;;;;4.97;2.05;;;11.40;59.70;;;;;;5453088;26;20080;-72
2024/04/18 04:21:20;;;;;;;2.83;1.35;;;11.40;59.60;;;;;;5452779;26;20022;-71
2024/04/18 04:23:46;;;;;;;5.18;1.50;;;11.30;60.10;;;;;;5453190;26;19995;-73
2024/04/18 04:26:12;;;;;;;4.57;1.77;;;11.10;60.20;;;;;;5452721;26;20400;-72
2024/04/18 04:28:37;;;;;;;3.88;1.60;;;11.10;60.90;;;;;;5452652;26;19995;-72
2024/04/18 04:31:03;;;;;;;3.85;1.50;;;11.10;60.60;;;;;;5452412;26;19994;-72
2024/04/18 04:33:33;;;;;;;5.18;1.50;;;11.00;60.50;;;;;;5452684;26;20068;-72
2024/04/18 04:35:59;;;;;;;3.67;1.50;;;11.00;60.30;;;;;;5452076;26;20072;-72
2024/04/18 04:38:25;;;;;;;3.90;1.80;;;11.10;60.50;;;;;;5452301;26;20003;-71
2024/04/18 04:40:51;;;;;;;3.40;1.63;;;11.10;60.70;;;;;;5452269;26;20040;-72
2024/04/18 04:43:17;;;;;;;3.28;1.50;;;11.10;60.70;;;;;;5452771;26;19999;-72
2024/04/18 04:45:43;;;;;;;3.78;1.67;;;11.00;60.50;;;;;;5452739;26;20026;-72
2024/04/18 04:48:08;;;;;;;4.68;1.90;;;10.90;60.40;;;;;;5452976;26;19999;-73
2024/04/18 04:50:40;;;;;;;5.95;2.00;;;10.80;61.00;;;;;;5452325;26;20009;-72
2024/04/18 04:53:05;;;;;;;5.07;2.13;;;10.80;61.20;;;;;;5452203;26;20011;-72
2024/04/18 04:55:31;;;;;;;5.35;2.00;;;10.90;61.10;;;;;;5451747;26;19999;-72
2024/04/18 04:57:57;;;;;;;5.72;2.17;;;10.90;61.20;;;;;;5451880;26;20072;-73
2024/04/18 05:00:22;;;;;;;5.60;2.47;;;10.80;61.50;;;;;;5451907;26;20170;-72
2024/04/18 05:02:48;;;;;;;5.40;2.40;;;10.90;61.50;;;;;;5451143;26;20109;-72
2024/04/18 05:05:13;;;;;;;4.55;2.30;;;10.80;61.60;;;;;;5451469;26;20451;-73
2024/04/18 05:07:39;;;;;;;5.10;2.70;;;10.80;61.70;;;;;;5452028;26;20045;-72
2024/04/18 05:10:06;;;;;;;6.45;2.50;;;10.90;61.60;;;;;;5451912;26;20022;-72
2024/04/18 05:12:31;;;;;;;6.93;2.58;;;11.00;61.70;;;;;;5451728;26;20430;-72
2024/04/18 05:14:57;;;;;;;8.25;2.90;;;11.00;61.30;;;;;;5451500;26;19998;-72
2024/04/18 05:17:23;;;;;;;7.25;3.00;;;11.10;61.20;;;;;;5452020;26;19998;-73
2024/04/18 05:19:48;;;;;;;20.02;10.35;;;11.20;61.20;;;;;;5452104;26;20006;-72
2024/04/18 05:22:14;;;;;;;11.05;5.65;;;11.20;60.90;;;;;;5451330;26;20002;-73
2024/04/18 05:24:39;;;;;;;6.55;3.83;;;11.20;60.80;;;;;;5451450;26;19998;-72
2024/04/18 05:27:05;;;;;;;8.38;5.13;;;11.20;60.60;;;;;;5451332;26;19995;-72
2024/04/18 05:32:15;;;;;;;6.95;3.53;;;11.30;61.70;;;;;;5451692;26;20068;-73
2024/04/18 05:34:40;;;;;;;5.40;2.65;;;11.40;60.80;;;;;;5419919;26;20031;-71
2024/04/18 05:37:06;;;;;;;5.30;2.30;;;11.40;60.60;;;;;;5451108;26;19995;-71
2024/04/18 05:39:31;;;;;;;8.30;3.20;;;11.50;60.80;;;;;;5451606;26;20002;-73
2024/04/18 05:41:57;;;;;;;7.22;2.85;;;11.70;60.70;;;;;;5451449;26;20023;-73
2024/04/18 05:44:24;;;;;;;8.85;2.70;;;11.70;60.10;;;;;;5419741;26;19995;-72
2024/04/18 05:46:50;;;;;;;6.72;2.20;;;11.90;60.10;;;;;;5451807;26;20006;-70
2024/04/18 05:49:16;;;;;;;6.95;2.58;;;12.40;60.30;;;;;;5452016;26;19999;-72
2024/04/18 05:51:42;;;;;;;12.95;3.30;;;13.20;60.00;;;;;;5451768;26;20018;-71
2024/04/18 05:54:08;;;;;;;7.63;2.55;;;13.80;59.40;;;;;;5451460;26;20011;-71
2024/04/18 05:56:34;;;;;;;8.25;2.63;;;14.50;58.60;;;;;;5451651;26;20360;-71
2024/04/18 05:59:00;;;;;;;7.65;2.33;;;15.20;57.50;;;;;;5451558;26;19998;-71
2024/04/18 06:01:25;;;;;;;7.55;2.75;;;15.80;55.20;;;;;;5451569;26;19995;-72
2024/04/18 06:03:51;;;;;;;9.52;2.60;;;16.00;55.40;;;;;;5451631;26;20470;-72
2024/04/18 06:06:16;;;;;;;8.88;2.42;;;16.30;53.90;;;;;;5451929;26;20033;-69
2024/04/18 06:08:42;;;;;;;10.07;3.10;;;16.70;53.30;;;;;;5451489;26;20028;-72
2024/04/18 06:11:08;;;;;;;6.38;2.65;;;17.10;52.60;;;;;;5451282;26;20010;-71
2024/04/18 06:13:36;;;;;;;7.30;2.40;;;17.30;52.30;;;;;;5451908;26;20010;-71
2024/04/18 06:16:02;;;;;;;6.72;2.22;;;17.40;51.40;;;;;;5419104;26;20300;-71
2024/04/18 06:18:29;;;;;;;5.70;2.50;;;17.60;51.50;;;;;;5451371;26;19998;-71
2024/04/18 06:20:55;;;;;;;6.32;2.75;;;17.60;51.00;;;;;;5451294;26;19994;-72
2024/04/18 06:23:21;;;;;;;6.40;2.80;;;17.90;51.10;;;;;;5451757;26;20084;-73
2024/04/18 06:25:47;;;;;;;6.90;3.03;;;18.10;50.90;;;;;;5450528;26;20007;-71
2024/04/18 06:28:13;;;;;;;9.38;3.58;;;18.30;50.40;;;;;;5419625;26;20375;-71
2024/04/18 06:30:39;;;;;;;11.35;3.13;;;18.20;50.40;;;;;;5450843;26;20068;-72
2024/04/18 06:33:05;;;;;;;11.60;3.40;;;18.30;50.30;;;;;;5451520;26;20331;-72
2024/04/18 06:35:31;;;;;;;12.10;3.75;;;18.50;50.20;;;;;;5450816;26;20399;-72
2024/04/18 06:37:57;;;;;;;9.82;3.80;;;18.60;49.90;;;;;;5451110;26;19999;-72
2024/04/18 06:40:25;;;;;;;12.30;5.63;;;18.80;49.50;;;;;;5451273;26;19994;-72
2024/04/18 06:42:52;;;;;;;13.43;4.22;;;18.60;50.00;;;;;;5451160;26;20075;-71
2024/04/18 06:45:18;;;;;;;8.10;2.97;;;18.80;49.80;;;;;;5450674;26;19995;-72
2024/04/18 06:47:44;;;;;;;11.48;2.97;;;19.00;49.50;;;;;;5450667;26;19999;-71
2024/04/18 06:50:10;;;;;;;8.80;2.70;;;19.00;49.30;;;;;;5450766;26;20075;-71
2024/04/18 06:52:36;;;;;;;14.63;3.10;;;19.50;48.80;;;;;;5451350;26;20006;-72
2024/04/18 06:55:01;;;;;;;8.27;2.45;;;19.50;48.60;;;;;;5451151;26;20053;-71
2024/04/18 06:57:27;;;;;;;8.27;2.75;;;19.60;48.50;;;;;;5439533;26;20020;-72
2024/04/18 06:59:53;;;;;;;10.13;2.50;;;20.10;48.30;;;;;;5414952;26;19992;-71
2024/04/18 07:02:18;;;;;;;10.93;2.63;;;20.20;48.00;;;;;;5414709;26;20064;-71
2024/04/18 07:04:45;;;;;;;7.45;2.22;;;20.40;47.70;;;;;;5414797;26;20001;-72
2024/04/18 07:07:11;;;;;;;10.40;2.90;;;20.30;47.40;;;;;;5414580;26;19995;-70
2024/04/18 07:09:37;;;;;;;10.00;2.20;;;20.70;47.50;;;;;;5414743;26;20036;-69
2024/04/18 07:12:03;;;;;;;5.97;2.67;;;20.90;47.90;;;;;;5414840;26;20003;-70
2024/04/18 07:14:29;;;;;;;5.18;2.15;;;21.20;47.10;;;;;;5382721;26;20004;-72
2024/04/18 07:16:55;;;;;;;8.13;2.13;;;21.00;46.80;;;;;;5414605;26;20027;-72
2024/04/18 07:19:20;;;;;;;4.85;2.10;;;20.80;47.10;;;;;;5415063;26;20069;-73
2024/04/18 07:21:46;;;;;;;6.60;2.30;;;20.80;46.90;;;;;;5414097;26;20443;-72
2024/04/18 07:24:12;;;;;;;4.95;2.15;;;21.00;46.60;;;;;;5414477;26;19996;-72
2024/04/18 07:26:37;;;;;;;10.35;2.80;;;21.00;46.20;;;;;;5412802;26;20360;-72
2024/04/18 07:29:03;;;;;;;7.35;2.00;;;20.50;46.20;;;;;;5413825;26;19992;-72
2024/04/18 07:31:29;;;;;;;7.90;2.35;;;20.00;46.60;;;;;;5413699;26;19996;-72
2024/04/18 07:33:55;;;;;;;5.13;2.22;;;19.60;47.00;;;;;;5413574;26;20006;-74
2024/04/18 07:36:21;;;;;;;8.02;2.42;;;19.30;47.40;;;;;;5413317;26;20458;-73
2024/04/18 07:38:49;;;;;;;6.90;2.40;;;19.00;47.60;;;;;;5396637;26;19992;-73
2024/04/18 07:41:15;;;;;;;6.28;2.10;;;18.80;48.20;;;;;;5418208;26;20073;-73
2024/04/18 07:43:40;;;;;;;4.72;2.10;;;18.50;47.90;;;;;;5417677;26;20007;-73
2024/04/18 07:46:06;;;;;;;4.72;2.25;;;18.30;48.30;;;;;;5417184;26;20297;-74
2024/04/18 07:48:32;;;;;;;6.68;2.10;;;18.10;48.70;;;;;;5385593;26;20019;-72
2024/04/18 07:50:57;;;;;;;7.35;2.38;;;18.10;48.80;;;;;;5416967;26;20000;-73
2024/04/18 07:53:23;;;;;;;8.57;2.90;;;18.10;48.90;;;;;;5445910;26;20001;-72
2024/04/18 07:55:49;;;;;;;40.67;7.93;;;18.00;49.00;;;;;;5419963;26;19987;-71
2024/04/18 07:58:15;;;;;;;26.23;5.47;;;18.00;49.10;;;;;;5428325;26;19999;-70
2024/04/18 08:00:41;;;;;;;30.05;4.20;;;18.00;49.20;;;;;;5449421;26;19995;-70
2024/04/18 08:03:07;;;;;;;27.88;5.38;;;18.00;49.40;;;;;;5450939;26;20780;-72
2024/04/18 08:05:32;;;;;;;19.35;4.63;;;18.00;49.20;;;;;;5449257;26;20068;-71
2024/04/18 08:07:58;;;;;;;15.55;3.25;;;18.00;49.20;;;;;;5419129;26;20069;-72
2024/04/18 08:10:23;;;;;;;75.00;10.48;;;17.90;48.70;;;;;;5426540;26;20031;-70
2024/04/18 08:12:49;;;;;;;19.90;3.63;;;17.70;49.30;;;;;;5452953;26;20458;-70
2024/04/18 08:15:15;;;;;;;7.57;2.33;;;17.60;49.40;;;;;;5452497;26;19991;-71
2024/04/18 08:17:41;;;;;;;10.00;2.58;;;17.50;49.40;;;;;;5452958;26;20002;-69
2024/04/18 08:20:07;;;;;;;24.65;4.53;;;17.50;49.50;;;;;;5453834;26;20002;-77
2024/04/18 08:22:33;;;;;;;46.10;6.75;;;17.50;49.80;;;;;;5444884;26;20422;-75
2024/04/18 08:25:02;;;;;;;23.65;4.75;;;17.60;50.10;;;;;;5417247;26;20408;-74
2024/04/18 08:27:28;;;;;;;11.52;2.90;;;17.60;50.00;;;;;;5417234;26;19988;-72
2024/04/18 08:29:54;;;;;;;11.68;3.38;;;17.70;49.90;;;;;;5416504;26;19995;-75
2024/04/18 08:32:20;;;;;;;10.60;2.90;;;17.70;49.90;;;;;;5385673;26;20001;-76
2024/04/18 08:34:46;;;;;;;13.50;2.50;;;17.80;50.00;;;;;;5417529;26;20009;-74
2024/04/18 08:37:12;;;;;;;7.07;2.30;;;17.80;50.20;;;;;;5415662;26;19999;-72
2024/04/18 08:39:37;;;;;;;7.07;2.75;;;17.80;50.20;;;;;;5417407;26;20423;-73
2024/04/18 08:42:06;;;;;;;5.15;2.30;;;17.80;50.10;;;;;;5415872;26;20440;-73
2024/04/18 08:44:32;;;;;;;7.43;2.13;;;17.70;50.00;;;;;;5446620;26;20002;-74
2024/04/18 08:46:59;;;;;;;12.55;3.15;;;17.70;50.20;;;;;;5450440;26;20005;-74
2024/04/18 08:49:27;;;;;;;7.05;2.40;;;17.70;50.10;;;;;;5451719;26;20347;-73
2024/04/18 08:51:54;;;;;;;7.25;2.13;;;17.60;49.80;;;;;;5452219;26;20006;-73
2024/04/18 08:54:20;;;;;;;6.20;2.15;;;17.60;49.60;;;;;;5449818;26;20003;-73
2024/04/18 08:56:53;;;;;;;5.38;2.17;;;17.40;49.50;;;;;;5417396;26;20036;-72
2024/04/18 08:59:22;;;;;;;5.95;2.38;;;17.50;49.90;;;;;;5445395;26;20158;-71
2024/04/18 09:01:48;;;;;;;9.80;2.30;;;17.60;50.20;;;;;;5438269;26;20011;-71
2024/04/18 09:04:14;;;;;;;10.45;2.85;;;17.60;49.90;;;;;;5444337;26;20009;-70
2024/04/18 09:06:40;;;;;;;6.03;2.25;;;17.60;49.60;;;;;;5449429;26;19998;-73
2024/04/18 09:09:18;;;;;;;5.70;1.75;;;17.60;49.50;;;;;;5446430;26;19990;-70
2024/04/18 09:11:47;;;;;;;7.80;1.95;;;17.60;48.70;;;;;;5441818;26;20019;-72
2024/04/18 09:14:13;;;;;;;8.90;2.70;;;17.50;48.50;;;;;;5440203;26;19999;-78
2024/04/18 09:16:38;;;;;;;16.60;2.80;;;17.50;48.50;;;;;;5452082;26;19999;-78
2024/04/18 09:19:04;;;;;;;4.00;1.45;;;17.60;49.10;;;;;;5416174;26;20015;-76
2024/04/18 09:21:33;;;;;;;3.53;1.58;;;17.60;48.20;;;;;;5444840;26;20379;-74
2024/04/18 09:23:58;;;;;;;5.85;1.58;;;17.70;46.90;;;;;;5452739;26;20007;-72
2024/04/18 09:26:30;;;;;;;5.65;1.90;;;17.60;46.30;;;;;;5452786;26;20069;-71
2024/04/18 09:28:57;;;;;;;7.28;1.42;;;17.50;46.00;;;;;;5420805;26;20009;-71
2024/04/18 09:31:26;;;;;;;4.05;1.70;;;17.40;45.80;;;;;;5420998;26;20128;-72
2024/04/18 09:33:52;;;;;;;4.80;1.67;;;17.30;45.80;;;;;;5452470;26;19999;-71
2024/04/18 09:36:18;;;;;;;5.53;1.42;;;17.30;45.70;;;;;;5452719;26;20014;-71
2024/04/18 09:38:48;;;;;;;7.72;1.63;;;17.40;45.70;;;;;;5452793;26;20326;-71
2024/04/18 09:41:29;;;;;;;5.45;1.88;;;17.40;45.60;;;;;;5452450;26;20003;-70
2024/04/18 09:44:19;;;;;;;3.80;1.55;;;17.50;44.90;;;;;;5452115;26;20005;-71
2024/04/18 09:46:48;;;;;;;6.68;1.40;;;17.60;45.70;;;;;;5452648;26;20006;-71
2024/04/18 09:49:15;;;;;;;7.85;2.22;;;17.60;46.00;;;;;;5451744;26;19995;-71
2024/04/18 09:51:41;;;;;;;5.78;1.83;;;17.60;46.10;;;;;;5451646;26;20002;-71
2024/04/18 09:54:07;;;;;;;5.50;1.50;;;17.80;46.50;;;;;;5452245;26;19999;-70
2024/04/18 09:56:34;;;;;;;7.88;1.98;;;17.80;46.50;;;;;;5451640;26;20403;-71
2024/04/18 09:59:00;;;;;;;7.55;1.60;;;18.00;46.90;;;;;;5451465;26;20311;-72
2024/04/18 10:01:26;;;;;;;7.15;1.80;;;18.10;47.00;;;;;;5450874;26;20021;-71
2024/04/18 10:03:52;;;;;;;5.07;1.75;;;18.20;46.80;;;;;;5452529;26;20383;-71
2024/04/18 10:06:24;;;;;;;6.75;1.92;;;18.30;46.80;;;;;;5451901;26;20040;-70
2024/04/18 10:08:53;;;;;;;3.83;1.48;;;18.40;46.50;;;;;;5451798;26;20005;-71
2024/04/18 10:11:22;;;;;;;5.10;1.67;;;18.50;46.30;;;;;;5451893;26;20050;-70
2024/04/18 10:13:49;;;;;;;8.43;1.90;;;18.50;45.90;;;;;;5451854;26;20063;-72
2024/04/18 10:16:15;;;;;;;5.07;1.60;;;18.40;44.70;;;;;;5451419;26;20002;-71
2024/04/18 10:18:41;;;;;;;4.80;1.50;;;18.40;45.10;;;;;;5451723;26;19995;-72
2024/04/18 10:21:20;;;;;;;6.55;1.60;;;18.40;44.80;;;;;;5451559;26;20026;-71
2024/04/18 10:23:50;;;;;;;7.70;1.65;;;18.40;44.00;;;;;;5451295;26;20013;-71
2024/04/18 10:26:17;;;;;;;7.50;1.60;;;18.40;44.80;;;;;;5451514;26;20318;-72
2024/04/18 10:28:44;;;;;;;4.82;1.73;;;18.40;44.60;;;;;;5451638;26;20009;-70
2024/04/18 10:31:11;;;;;;;4.60;1.45;;;18.40;44.60;;;;;;5450828;26;20075;-71
2024/04/18 10:33:39;;;;;;;4.72;1.48;;;18.50;44.60;;;;;;5451614;26;19995;-72
2024/04/18 10:36:11;;;;;;;11.15;2.15;;;18.60;44.80;;;;;;5451485;26;20007;-71
2024/04/18 10:38:42;;;;;;;5.03;1.48;;;18.70;44.60;;;;;;5419377;26;20319;-71
2024/04/18 10:41:15;;;;;;;6.25;1.60;;;18.80;44.40;;;;;;5450807;26;20027;-71
2024/04/18 10:43:42;;;;;;;4.05;1.50;;;18.80;44.20;;;;;;5451905;26;19999;-71
2024/04/18 10:46:12;;;;;;;5.43;1.40;;;18.90;44.20;;;;;;5451247;26;20007;-71
2024/04/18 10:48:39;;;;;;;6.43;1.58;;;19.00;44.50;;;;;;5451899;26;20005;-72
2024/04/18 10:51:07;;;;;;;4.90;1.65;;;19.10;44.20;;;;;;5450801;26;20002;-72
2024/04/18 10:53:37;;;;;;;6.70;1.55;;;19.20;43.80;;;;;;5450972;26;20010;-71
2024/04/18 10:56:04;;;;;;;5.80;1.48;;;19.30;43.50;;;;;;5450891;26;19999;-71
2024/04/18 10:58:30;;;;;;;2.67;1.25;;;19.50;43.00;;;;;;5450676;26;20339;-73
2024/04/18 11:00:59;;;;;;;3.92;1.20;;;19.60;43.40;;;;;;5451471;26;20005;-72
2024/04/18 11:03:28;;;;;;;4.15;1.17;;;19.50;43.00;;;;;;5451523;26;20002;-72
2024/04/18 11:05:59;;;;;;;4.45;1.35;;;19.30;42.70;;;;;;5452084;26;20002;-72
2024/04/18 11:08:25;;;;;;;2.20;1.13;;;19.20;42.60;;;;;;5451823;26;20029;-71
2024/04/18 11:10:51;;;;;;;4.90;1.50;;;19.00;42.30;;;;;;5451351;26;19999;-72
2024/04/18 11:13:18;;;;;;;4.45;1.27;;;19.00;42.60;;;;;;5453388;26;20414;-74
2024/04/18 11:15:44;;;;;;;6.35;1.60;;;19.00;42.30;;;;;;5454897;26;19999;-73
2024/04/18 11:18:09;;;;;;;5.72;1.40;;;19.00;42.20;;;;;;5454100;26;19998;-73
2024/04/18 11:20:35;;;;;;;2.50;1.40;;;19.00;42.20;;;;;;5422706;26;20334;-78
2024/04/18 11:23:06;;;;;;;5.82;0.98;;;19.00;41.90;;;;;;5422951;26;20348;-76
2024/04/18 11:25:32;;;;;;;3.85;1.15;;;19.10;42.00;;;;;;5454525;26;20385;-75
2024/04/18 11:27:58;;;;;;;5.45;1.60;;;19.30;42.10;;;;;;5454923;26;19995;-74
2024/04/18 11:30:25;;;;;;;3.33;1.55;;;19.60;41.90;;;;;;5453899;26;19995;-73
2024/04/18 11:32:58;;;;;;;9.57;1.70;;;19.70;41.60;;;;;;5451765;26;20429;-75
2024/04/18 11:35:25;;;;;;;2.45;1.17;;;19.90;41.70;;;;;;5453789;26;20095;-75
2024/04/18 11:37:51;;;;;;;2.95;1.23;;;19.90;41.00;;;;;;5453252;26;20359;-75
2024/04/18 11:40:17;;;;;;;5.47;1.15;;;20.10;40.90;;;;;;5453843;26;20009;-75
2024/04/18 11:42:44;;;;;;;2.95;1.13;;;20.20;40.50;;;;;;5454074;26;20397;-75
2024/04/18 11:45:10;;;;;;;10.30;1.77;;;20.30;41.10;;;;;;5453960;26;20041;-75
2024/04/18 11:47:37;;;;;;;8.70;1.38;;;20.50;40.40;;;;;;5422259;26;20007;-76
2024/04/18 11:50:04;;;;;;;4.20;1.60;;;20.60;41.10;;;;;;5453271;26;20023;-75
2024/04/18 11:52:29;;;;;;;4.07;1.20;;;20.60;40.50;;;;;;5453824;26;19999;-76
2024/04/18 11:54:55;;;;;;;2.45;1.20;;;20.70;41.10;;;;;;5453859;26;20068;-75
2024/04/18 11:57:21;;;;;;;4.30;1.40;;;20.70;40.90;;;;;;5453625;26;19999;-77
2024/04/18 11:59:47;;;;;;;5.05;1.58;;;20.70;41.00;;;;;;5453323;26;20013;-76
2024/04/18 12:02:13;;;;;;;7.15;1.45;;;20.50;41.70;;;;;;5453173;26;20439;-77
2024/04/18 12:04:39;;;;;;;8.27;1.75;;;20.50;42.10;;;;;;5453094;26;19995;-77
2024/04/18 12:07:05;;;;;;;3.72;1.45;;;20.40;42.10;;;;;;5452787;26;20003;-75
2024/04/18 12:09:36;;;;;;;5.22;1.40;;;20.30;42.20;;;;;;5453138;26;20071;-73
2024/04/18 12:12:05;;;;;;;3.75;1.38;;;20.30;42.20;;;;;;5421589;26;20006;-73
2024/04/18 12:14:31;;;;;;;6.50;1.70;;;20.20;42.50;;;;;;5453834;26;20007;-74
2024/04/18 12:16:57;;;;;;;3.97;1.33;;;20.20;43.00;;;;;;5452025;26;19990;-75
2024/04/18 12:19:22;;;;;;;5.30;1.73;;;20.10;43.60;;;;;;5454118;26;19999;-73
2024/04/18 12:21:48;;;;;;;6.25;2.97;;;20.00;43.30;;;;;;5453883;26;20331;-72
2024/04/18 12:24:14;;;;;;;11.23;4.20;;;19.90;43.00;;;;;;5452838;26;19995;-74
2024/04/18 12:26:40;;;;;;;4.63;1.75;;;20.00;43.60;;;;;;5454330;26;20002;-74
2024/04/18 12:29:06;;;;;;;3.92;1.40;;;20.10;43.40;;;;;;5454151;26;20001;-74
2024/04/18 12:31:32;;;;;;;8.65;1.70;;;20.20;43.00;;;;;;5454055;26;20435;-75
2024/04/18 12:33:57;;;;;;;3.53;1.25;;;20.20;43.00;;;;;;5453625;26;19998;-74
2024/04/18 12:36:23;;;;;;;3.70;1.30;;;20.20;42.90;;;;;;5454044;26;19991;-73
2024/04/18 12:38:49;;;;;;;5.40;1.75;;;20.10;42.80;;;;;;5453853;26;19991;-74
2024/04/18 12:41:15;;;;;;;6.05;1.15;;;20.20;43.20;;;;;;5453674;26;20011;-74
2024/04/18 12:43:40;;;;;;;13.02;2.10;;;20.20;42.80;;;;;;5454367;26;19998;-74